Time;durP1;ratioP1;P1;durP2;ratioP2;P2;SDS_P1;SDS_P2;PMS_P1;PMS_P2;Temp;Humidity;BMP_temperature;BMP_pressure;BME280_temperature;BME280_humidity;BME280_pressure;Samples;Min_cycle;Max_cycle;Signal;HPM_P1;HPM_P2
2023/03/03 00:01:05;;;;;;;15.97;7.73;;;;;;;5.52;nan;-23970.78;5012003;28;20538;-70
2023/03/03 00:03:30;;;;;;;19.80;7.60;;;;;;;5.55;nan;-23971.63;5012179;28;20183;-70
2023/03/03 00:05:56;;;;;;;11.40;6.13;;;;;;;5.76;nan;-23977.59;5004517;28;20192;-70
2023/03/03 00:08:22;;;;;;;16.53;7.80;;;;;;;5.59;nan;-23972.75;5000961;28;20180;-72
2023/03/03 00:10:48;;;;;;;12.33;6.10;;;;;;;5.65;nan;-23974.59;5010999;28;20230;-70
2023/03/03 00:13:19;;;;;;;11.90;6.30;;;;;;;5.59;nan;-23972.75;5006139;28;20188;-70
2023/03/03 00:15:45;;;;;;;13.33;6.10;;;;;;;5.83;nan;-23979.59;5009589;28;20266;-70
2023/03/03 00:18:35;;;;;;;18.33;6.63;;;;;;;5.95;nan;-23983.00;5010000;28;20188;-70
2023/03/03 00:21:02;;;;;;;14.67;7.23;;;;;;;5.85;nan;-23980.16;5004987;28;20184;-69
2023/03/03 00:23:34;;;;;;;10.60;5.60;;;;;;;5.95;nan;-23982.84;5007926;28;20566;-71
2023/03/03 00:26:00;;;;;;;16.83;6.63;;;;;;;5.72;nan;-23976.59;5001745;28;20612;-70
2023/03/03 00:28:30;;;;;;;18.07;6.10;;;;;;;5.86;nan;-23980.28;5003949;28;20180;-70
2023/03/03 00:30:58;;;;;;;16.80;6.83;;;;;;;5.94;nan;-23982.72;5011587;28;20204;-70
2023/03/03 00:33:46;;;;;;;24.50;7.53;;;;;;;5.57;nan;-23972.34;5011347;28;20271;-70
2023/03/03 00:36:14;;;;;;;11.37;6.27;;;;;;;5.95;nan;-23983.00;5005042;28;20208;-70
2023/03/03 00:38:40;;;;;;;11.70;6.13;;;;;;;5.71;nan;-23976.31;5011365;28;20645;-71
2023/03/03 00:41:22;;;;;;;14.33;6.67;;;;;;;5.98;nan;-23983.84;5011545;28;20238;-70
2023/03/03 00:43:47;;;;;;;9.27;6.30;;;;;;;5.61;nan;-23973.47;5011545;28;20210;-70
2023/03/03 00:46:18;;;;;;;13.93;6.37;;;;;;;5.77;nan;-23978.03;5013802;28;20212;-70
2023/03/03 00:48:44;;;;;;;12.60;6.47;;;;;;;5.67;nan;-23975.03;5014101;28;20179;-70
2023/03/03 00:51:21;;;;;;;9.97;5.80;;;;;;;6.02;nan;-23984.84;5009170;28;20185;-71
2023/03/03 00:53:47;;;;;;;12.07;6.70;;;;;;;5.92;nan;-23982.00;5003610;28;20228;-70
2023/03/03 00:56:13;;;;;;;14.07;6.50;;;;;;;5.76;nan;-23977.59;5008294;28;20584;-69
2023/03/03 00:58:38;;;;;;;18.47;7.67;;;;;;;5.80;nan;-23978.72;5015354;28;20627;-70
2023/03/03 01:01:04;;;;;;;17.57;6.50;;;;;;;3.85;nan;-23923.94;5014947;28;20310;-70
2023/03/03 01:03:30;;;;;;;12.27;6.20;;;;;;;5.77;nan;-23978.03;5015077;28;20218;-69
2023/03/03 01:05:55;;;;;;;20.27;7.10;;;;;;;5.84;nan;-23979.88;5013908;28;20160;-70
2023/03/03 01:08:21;;;;;;;12.20;7.07;;;;;;;6.06;nan;-23986.13;5009386;28;20626;-69
2023/03/03 01:10:59;;;;;;;15.97;7.37;;;;;;;5.64;nan;-23974.19;5014596;28;20698;-70
2023/03/03 01:13:31;;;;;;;8.17;5.40;;;;;;;5.25;nan;-23963.38;5015169;28;20164;-69
2023/03/03 01:15:58;;;;;;;11.97;6.50;;;;;;;5.79;nan;-23978.44;5014536;28;20230;-70
2023/03/03 01:18:24;;;;;;;18.07;6.83;;;;;;;5.81;nan;-23979.00;5013533;28;20824;-69
2023/03/03 01:20:49;;;;;;;14.30;7.43;;;;;;;5.63;nan;-23974.03;5014601;28;20298;-69
2023/03/03 01:23:15;;;;;;;13.13;5.90;;;;;;;5.72;nan;-23976.47;5014371;28;20172;-70
2023/03/03 01:25:40;;;;;;;13.33;6.60;;;;;;;5.77;nan;-23977.88;5014255;28;20196;-71
2023/03/03 01:28:06;;;;;;;13.03;7.17;;;;;;;5.84;nan;-23979.88;5015835;28;20259;-70
2023/03/03 01:30:31;;;;;;;12.87;5.30;;;;;;;5.82;nan;-23979.31;5014038;28;20176;-69
2023/03/03 01:32:57;;;;;;;8.70;6.30;;;;;;;5.59;nan;-23972.91;5014399;28;20176;-69
2023/03/03 01:35:22;;;;;;;16.73;6.37;;;;;;;5.81;nan;-23979.00;5014198;28;20168;-71
2023/03/03 01:37:48;;;;;;;15.93;7.43;;;;;;;5.78;nan;-23978.16;5014370;28;20203;-70
2023/03/03 01:40:20;;;;;;;11.83;6.57;;;;;;;5.74;nan;-23977.03;5014066;28;20265;-70
2023/03/03 01:42:45;;;;;;;10.40;6.20;;;;;;;5.70;nan;-23975.88;5014396;28;20160;-70
2023/03/03 01:45:22;;;;;;;14.70;6.13;;;;;;;5.81;nan;-23979.00;5014512;28;20711;-70
2023/03/03 01:48:20;;;;;;;14.93;6.67;;;;;;;5.94;nan;-23982.56;5014404;28;20164;-70
2023/03/03 01:50:59;;;;;;;18.97;8.70;;;;;;;5.96;nan;-23983.28;5014391;28;20666;-70
2023/03/03 01:53:32;;;;;;;11.00;6.17;;;;;;;5.69;nan;-23975.59;5013693;28;20781;-70
2023/03/03 01:55:59;;;;;;;12.70;6.40;;;;;;;5.75;nan;-23977.31;5013161;28;20230;-70
2023/03/03 01:58:38;;;;;;;9.53;6.10;;;;;;;5.83;nan;-23979.44;5014009;28;20259;-70
2023/03/03 02:01:13;;;;;;;11.60;6.70;;;;;;;5.59;nan;-23972.75;5014468;28;20339;-70
2023/03/03 02:03:39;;;;;;;10.93;5.93;;;;;;;5.41;nan;-23967.66;5013998;28;20655;-71
2023/03/03 02:06:09;;;;;;;13.97;6.30;;;;;;;5.58;nan;-23972.63;5013531;28;20322;-69
2023/03/03 02:08:49;;;;;;;15.20;7.37;;;;;;;5.48;nan;-23969.78;5014281;28;20627;-71
2023/03/03 02:11:15;;;;;;;16.90;6.40;;;;;;;5.47;nan;-23969.34;5013403;28;20172;-70
2023/03/03 02:13:40;;;;;;;25.27;8.97;;;;;;;5.73;nan;-23976.75;5013930;28;20255;-69
2023/03/03 02:16:06;;;;;;;17.40;6.30;;;;;;;5.66;nan;-23974.75;5022310;28;20287;-69
2023/03/03 02:18:32;;;;;;;14.80;6.70;;;;;;;5.33;nan;-23965.50;5010205;28;20192;-68
2023/03/03 02:21:18;;;;;;;16.43;7.83;;;;;;;5.57;nan;-23972.19;5013632;28;20195;-70
2023/03/03 02:23:50;;;;;;;15.17;7.70;;;;;;;5.45;nan;-23968.94;4998104;28;20180;-70
2023/03/03 02:26:19;;;;;;;15.33;6.93;;;;;;;4.99;nan;-23956.00;5010835;28;20606;-70
2023/03/03 02:28:44;;;;;;;12.93;6.43;;;;;;;4.88;nan;-23952.84;5008179;28;20638;-70
2023/03/03 02:31:14;;;;;;;16.30;7.17;;;;;;;5.06;nan;-23957.97;5005989;28;20188;-68
2023/03/03 02:33:45;;;;;;;12.03;6.43;;;;;;;5.17;nan;-23960.97;5013323;28;20180;-68
2023/03/03 02:36:17;;;;;;;14.50;7.93;;;;;;;4.90;nan;-23953.44;5012977;28;20192;-70
2023/03/03 02:38:53;;;;;;;22.00;7.13;;;;;;;5.04;nan;-23957.25;5012701;28;20532;-71
2023/03/03 02:41:38;;;;;;;15.37;7.80;;;;;;;4.96;nan;-23955.13;5010761;28;20184;-70
2023/03/03 02:44:12;;;;;;;17.07;7.67;;;;;;;4.78;nan;-23950.16;5010270;28;20548;-69
2023/03/03 02:46:40;;;;;;;12.17;6.47;;;;;;;4.81;nan;-23950.84;5012375;28;20605;-71
2023/03/03 02:49:07;;;;;;;13.77;7.57;;;;;;;5.02;nan;-23956.84;5006056;28;20251;-69
2023/03/03 02:51:33;;;;;;;18.23;7.53;;;;;;;4.86;nan;-23952.44;5004771;28;20196;-69
2023/03/03 02:53:59;;;;;;;14.47;6.73;;;;;;;5.04;nan;-23957.41;5012759;28;20234;-72
2023/03/03 02:56:25;;;;;;;20.73;8.30;;;;;;;4.64;nan;-23946.03;5010721;28;20586;-71
2023/03/03 02:58:51;;;;;;;16.47;8.00;;;;;;;5.32;nan;-23965.22;5002737;28;20230;-69
2023/03/03 03:01:16;;;;;;;16.20;8.37;;;;;;;5.13;nan;-23959.97;5004846;28;20740;-70
2023/03/03 03:03:42;;;;;;;20.73;7.53;;;;;;;4.66;nan;-23946.59;5002489;28;20644;-69
2023/03/03 03:06:07;;;;;;;13.27;7.70;;;;;;;5.40;nan;-23967.38;5010794;28;20684;-70
2023/03/03 03:08:33;;;;;;;17.37;8.83;;;;;;;5.32;nan;-23965.22;5009897;28;20559;-69
2023/03/03 03:10:58;;;;;;;13.63;7.73;;;;;;;5.32;nan;-23965.22;5009117;28;20188;-70
2023/03/03 03:13:24;;;;;;;12.40;6.73;;;;;;;5.25;nan;-23963.25;5006230;28;20187;-70
2023/03/03 03:15:50;;;;;;;15.40;9.27;;;;;;;5.26;nan;-23963.66;5012379;28;20183;-70
2023/03/03 03:18:16;;;;;;;14.13;8.13;;;;;;;4.93;nan;-23954.28;5021187;28;20188;-71
2023/03/03 03:20:42;;;;;;;18.40;8.70;;;;;;;5.04;nan;-23957.25;5011693;28;20611;-70
2023/03/03 03:23:08;;;;;;;16.73;7.43;;;;;;;5.25;nan;-23963.25;5012483;28;20172;-70
2023/03/03 03:25:34;;;;;;;19.87;9.30;;;;;;;5.04;nan;-23957.25;5012137;28;20284;-70
2023/03/03 03:28:01;;;;;;;13.23;6.97;;;;;;;5.18;nan;-23961.38;5012367;28;20254;-70
2023/03/03 03:30:26;;;;;;;12.63;7.07;;;;;;;5.11;nan;-23959.25;5011917;28;20655;-70
2023/03/03 03:32:52;;;;;;;15.27;7.13;;;;;;;5.31;nan;-23965.09;5005719;28;20215;-70
2023/03/03 03:35:17;;;;;;;18.67;7.87;;;;;;;5.01;nan;-23956.56;5012566;28;20212;-70
2023/03/03 03:37:43;;;;;;;14.37;7.47;;;;;;;5.03;nan;-23957.13;5006387;28;20215;-70
2023/03/03 03:40:10;;;;;;;18.10;8.00;;;;;;;5.11;nan;-23959.25;5012408;28;20215;-70
2023/03/03 03:42:37;;;;;;;15.50;9.00;;;;;;;4.94;nan;-23954.56;5012137;28;20545;-70
2023/03/03 03:45:03;;;;;;;16.10;8.53;;;;;;;4.96;nan;-23955.13;5011663;28;20180;-71
2023/03/03 03:47:29;;;;;;;20.43;9.00;;;;;;;5.11;nan;-23959.25;5010159;28;20231;-71
2023/03/03 03:49:54;;;;;;;19.40;8.97;;;;;;;5.28;nan;-23964.22;5007750;28;20180;-71
2023/03/03 03:52:19;;;;;;;16.77;8.53;;;;;;;5.03;nan;-23957.13;5012032;28;20176;-70
2023/03/03 03:54:45;;;;;;;13.57;7.53;;;;;;;5.06;nan;-23957.97;5011854;28;20801;-69
2023/03/03 03:57:10;;;;;;;16.00;7.97;;;;;;;5.38;nan;-23966.78;5011737;28;20208;-70
2023/03/03 03:59:36;;;;;;;13.63;7.00;;;;;;;5.18;nan;-23961.38;5011795;28;20316;-70
2023/03/03 04:02:01;;;;;;;22.33;6.87;;;;;;;5.10;nan;-23958.97;5012404;28;20175;-69
2023/03/03 04:04:26;;;;;;;20.27;7.97;;;;;;;5.38;nan;-23966.78;5011851;28;20176;-70
2023/03/03 04:06:52;;;;;;;11.73;6.87;;;;;;;4.89;nan;-23953.28;5011868;28;20165;-70
2023/03/03 04:09:18;;;;;;;10.57;5.73;;;;;;;5.15;nan;-23960.53;5011609;28;20563;-69
2023/03/03 04:11:43;;;;;;;15.23;7.27;;;;;;;5.30;nan;-23964.81;5011601;28;20182;-70
2023/03/03 04:14:09;;;;;;;22.13;8.00;;;;;;;;;;5026717;28;20180;-70
2023/03/03 04:16:34;;;;;;;9.07;5.93;;;;;;;5.31;nan;-23965.09;5026667;28;20218;-71
2023/03/03 04:18:59;;;;;;;18.43;8.40;;;;;;;5.59;nan;-23972.75;5009874;28;20180;-70
2023/03/03 04:21:26;;;;;;;11.97;6.43;;;;;;;5.16;nan;-23960.81;5010109;28;20208;-70
2023/03/03 04:23:52;;;;;;;13.53;8.17;;;;;;;5.15;nan;-23960.41;5011710;28;20180;-70
2023/03/03 04:26:17;;;;;;;13.63;7.20;;;;;;;4.94;nan;-23954.41;5011615;28;20266;-70
2023/03/03 04:28:43;;;;;;;12.20;6.60;;;;;;;5.22;nan;-23962.38;5011552;28;20176;-70
2023/03/03 04:31:09;;;;;;;15.40;9.03;;;;;;;5.03;nan;-23957.13;5011417;28;20184;-70
2023/03/03 04:33:35;;;;;;;18.03;9.33;;;;;;;4.97;nan;-23955.28;5011822;28;20184;-70
2023/03/03 04:36:00;;;;;;;18.90;7.53;;;;;;;5.23;nan;-23962.66;5010112;28;20673;-70
2023/03/03 04:38:26;;;;;;;15.17;7.00;;;;;;;4.85;nan;-23952.16;5012778;28;20263;-71
2023/03/03 04:40:51;;;;;;;16.33;8.67;;;;;;;4.98;nan;-23955.69;5011982;28;20647;-70
2023/03/03 04:43:16;;;;;;;12.80;7.77;;;;;;;4.89;nan;-23953.13;5011171;28;20176;-71
2023/03/03 04:45:42;;;;;;;16.83;7.87;;;;;;;4.89;nan;-23953.13;5011182;28;20667;-70
2023/03/03 04:48:08;;;;;;;17.97;7.50;;;;;;;4.71;nan;-23948.16;5011108;28;20179;-70
2023/03/03 04:50:34;;;;;;;19.70;9.17;;;;;;;4.92;nan;-23954.00;5000854;28;20212;-70
2023/03/03 04:52:59;;;;;;;22.47;8.60;;;;;;;5.03;nan;-23957.13;4998059;28;20562;-70
2023/03/03 04:55:25;;;;;;;15.67;7.80;;;;;;;4.86;nan;-23952.28;5001820;28;20288;-69
2023/03/03 04:57:50;;;;;;;13.50;7.77;;;;;;;4.81;nan;-23950.84;4997923;28;20219;-69
2023/03/03 05:00:16;;;;;;;12.40;7.90;;;;;;;5.01;nan;-23956.41;5000908;28;20200;-70
2023/03/03 05:02:41;;;;;;;17.63;9.43;;;;;;;4.98;nan;-23955.56;4999410;28;20188;-70
2023/03/03 05:05:12;;;;;;;11.33;7.07;;;;;;;4.92;nan;-23954.00;5011494;28;20690;-70
2023/03/03 05:07:39;;;;;;;15.03;7.03;;;;;;;5.05;nan;-23957.69;5011195;28;20259;-71
2023/03/03 05:10:06;;;;;;;13.57;7.60;;;;;;;5.30;nan;-23964.81;5011120;28;20196;-69
2023/03/03 05:12:31;;;;;;;14.63;8.03;;;;;;;4.92;nan;-23953.84;5010736;28;20176;-70
2023/03/03 05:14:57;;;;;;;16.03;8.73;;;;;;;4.94;nan;-23954.41;5026279;28;20199;-71
2023/03/03 05:17:22;;;;;;;21.07;8.63;;;;;;;5.28;nan;-23964.09;5011085;28;20204;-70
2023/03/03 05:19:48;;;;;;;12.07;6.97;;;;;;;5.18;nan;-23961.38;5011213;28;20173;-70
2023/03/03 05:22:13;;;;;;;15.90;8.67;;;;;;;5.08;nan;-23958.53;5008868;28;20172;-70
2023/03/03 05:24:41;;;;;;;16.97;7.07;;;;;;;5.34;nan;-23965.78;4996017;28;20192;-70
2023/03/03 05:27:07;;;;;;;17.53;7.73;;;;;;;5.54;nan;-23971.47;4996785;28;20884;-70
2023/03/03 05:29:32;;;;;;;16.50;7.40;;;;;;;5.39;nan;-23967.06;4997548;28;20180;-70
2023/03/03 05:31:58;;;;;;;15.07;6.47;;;;;;;5.35;nan;-23966.09;4997670;28;20211;-69
2023/03/03 05:34:23;;;;;;;14.07;7.43;;;;;;;5.45;nan;-23968.94;4999998;28;20187;-71
2023/03/03 05:36:49;;;;;;;19.13;8.23;;;;;;;5.40;nan;-23967.50;5000631;28;20218;-70
2023/03/03 05:39:15;;;;;;;17.43;6.60;;;;;;;5.31;nan;-23964.94;4999263;28;20176;-70
2023/03/03 05:41:40;;;;;;;13.43;7.37;;;;;;;5.66;nan;-23974.75;4999928;28;20306;-69
2023/03/03 05:44:06;;;;;;;13.33;7.30;;;;;;;5.21;nan;-23962.09;5001560;28;20192;-69
2023/03/03 05:46:32;;;;;;;17.47;6.90;;;;;;;5.40;nan;-23967.50;5000457;28;20184;-70
2023/03/03 05:48:57;;;;;;;27.17;7.43;;;;;;;5.63;nan;-23974.03;4999557;28;20223;-71
2023/03/03 05:51:23;;;;;;;20.73;7.30;;;;;;;5.42;nan;-23967.94;4999983;28;20199;-70
2023/03/03 05:53:48;;;;;;;12.33;6.77;;;;;;;5.19;nan;-23961.66;5000904;28;20260;-71
2023/03/03 05:56:14;;;;;;;18.07;6.17;;;;;;;5.67;nan;-23975.03;4998743;28;20219;-69
2023/03/03 05:58:39;;;;;;;14.87;7.97;;;;;;;5.75;nan;-23977.31;5000083;28;20184;-71
2023/03/03 06:01:05;;;;;;;10.07;6.23;;;;;;;5.79;nan;-23978.44;5001343;28;20176;-71
2023/03/03 06:03:30;;;;;;;11.77;6.57;;;;;;;5.64;nan;-23974.31;5002532;28;20239;-72
2023/03/03 06:05:56;;;;;;;11.33;5.97;;;;;;;5.72;nan;-23976.47;5000821;28;20191;-73
2023/03/03 06:08:32;;;;;;;9.40;5.83;;;;;;;5.87;nan;-23980.72;5000362;28;20259;-70
2023/03/03 06:10:57;;;;;;;10.83;6.27;;;;;;;5.91;nan;-23981.72;4999782;28;20180;-71
2023/03/03 06:13:23;;;;;;;13.00;5.93;;;;;;;5.44;nan;-23968.50;5000823;28;20322;-71
2023/03/03 06:15:48;;;;;;;14.47;6.50;;;;;;;5.60;nan;-23973.19;4999887;28;20258;-70
2023/03/03 06:18:14;;;;;;;12.90;6.93;;;;;;;5.47;nan;-23969.34;4998711;28;20181;-71
2023/03/03 06:20:39;;;;;;;13.63;6.03;;;;;;;5.91;nan;-23981.72;5000110;28;20534;-71
2023/03/03 06:23:05;;;;;;;17.53;6.60;;;;;;;6.02;nan;-23984.97;5014412;28;20219;-70
2023/03/03 06:25:30;;;;;;;13.60;7.07;;;;;;;6.07;nan;-23986.25;4998272;28;20206;-70
2023/03/03 06:27:56;;;;;;;16.10;6.90;;;;;;;5.78;nan;-23978.31;5013339;28;20619;-71
2023/03/03 06:30:22;;;;;;;12.43;7.27;;;;;;;5.67;nan;-23975.19;4998692;28;20658;-70
2023/03/03 06:32:47;;;;;;;13.40;7.23;;;;;;;5.92;nan;-23982.16;5000065;28;20184;-71
2023/03/03 06:35:13;;;;;;;14.93;6.17;;;;;;;5.98;nan;-23983.84;4996932;28;20272;-71
2023/03/03 06:37:38;;;;;;;13.07;7.07;;;;;;;5.99;nan;-23984.13;4997481;28;20210;-71
2023/03/03 06:40:05;;;;;;;20.67;7.83;;;;;;;5.20;nan;-23961.81;4996938;28;20202;-72
2023/03/03 06:42:30;;;;;;;11.23;6.27;;;;;;;6.16;nan;-23988.97;4997404;28;20181;-71
2023/03/03 06:44:55;;;;;;;10.87;5.27;;;;;;;6.16;nan;-23988.97;4999512;28;20192;-71
2023/03/03 06:47:21;;;;;;;15.53;6.37;;;;;;;5.96;nan;-23983.28;4999582;28;20254;-72
2023/03/03 06:49:47;;;;;;;15.33;7.03;;;;;;;6.00;nan;-23984.28;4999170;28;20263;-72
2023/03/03 06:52:24;;;;;;;14.60;6.57;;;;;;;6.30;nan;-23992.78;5013261;28;20188;-72
2023/03/03 06:54:53;;;;;;;10.77;6.30;;;;;;;6.37;nan;-23994.78;4996401;28;20223;-72
2023/03/03 06:57:26;;;;;;;14.93;6.87;;;;;;;6.36;nan;-23994.34;4997237;28;20204;-71
2023/03/03 06:59:54;;;;;;;20.43;8.27;;;;;;;6.24;nan;-23990.94;4995555;28;20599;-71
2023/03/03 07:02:21;;;;;;;14.03;7.40;;;;;;;5.98;nan;-23983.72;4999256;28;20271;-71
2023/03/03 07:04:46;;;;;;;14.43;7.27;;;;;;;6.37;nan;-23994.66;5012675;28;20184;-71
2023/03/03 07:07:21;;;;;;;18.80;7.77;;;;;;;6.48;nan;-23997.91;4996949;28;20186;-72
2023/03/03 07:09:53;;;;;;;15.20;6.83;;;;;;;6.50;nan;-23998.34;5000015;28;20176;-72
2023/03/03 07:12:21;;;;;;;14.23;6.73;;;;;;;6.68;nan;-24003.44;4998928;28;20200;-71
2023/03/03 07:14:57;;;;;;;17.13;8.53;;;;;;;6.69;nan;-24003.72;5000819;28;20314;-70
2023/03/03 07:17:24;;;;;;;13.23;7.83;;;;;;;6.51;nan;-23998.63;5006532;28;20661;-73
2023/03/03 07:19:49;;;;;;;14.50;6.97;;;;;;;6.93;nan;-24010.53;4998068;28;20184;-72
2023/03/03 07:22:24;;;;;;;13.57;7.90;;;;;;;6.95;nan;-24010.97;4998203;28;20702;-71
2023/03/03 07:24:52;;;;;;;18.47;7.93;;;;;;;7.21;nan;-24018.19;4998955;28;20193;-71
2023/03/03 07:27:18;;;;;;;12.73;6.33;;;;;;;7.12;nan;-24015.66;5014016;28;20184;-72
2023/03/03 07:29:46;;;;;;;11.37;6.27;;;;;;;6.72;nan;-24004.44;5001431;28;20646;-72
2023/03/03 07:32:26;;;;;;;14.73;7.63;;;;;;;7.15;nan;-24016.63;5012587;28;20180;-72
2023/03/03 07:34:54;;;;;;;16.00;6.37;;;;;;;7.03;nan;-24013.38;4996082;28;20191;-73
2023/03/03 07:37:37;;;;;;;16.00;7.07;;;;;;;7.02;nan;-24013.09;4997348;28;20582;-73
2023/03/03 07:40:26;;;;;;;10.87;6.03;;;;;;;7.28;nan;-24020.31;4998508;28;20176;-71
2023/03/03 07:42:51;;;;;;;13.63;5.97;;;;;;;6.98;nan;-24011.94;4995857;28;20649;-73
2023/03/03 07:45:31;;;;;;;8.47;5.90;;;;;;;6.92;nan;-24010.25;4995735;28;20666;-73
2023/03/03 07:48:11;;;;;;;13.87;6.83;;;;;;;7.28;nan;-24020.31;4997924;28;20215;-73
2023/03/03 07:50:38;;;;;;;12.97;6.20;;;;;;;7.26;nan;-24019.63;4994773;28;20183;-72
2023/03/03 07:53:22;;;;;;;11.50;6.97;;;;;;;7.21;nan;-24018.34;4997998;28;20184;-72
2023/03/03 07:55:48;;;;;;;13.73;6.90;;;;;;;7.46;nan;-24025.44;4997137;28;20259;-72
2023/03/03 07:58:20;;;;;;;11.87;6.77;;;;;;;7.49;nan;-24026.28;5007726;28;20176;-71
2023/03/03 08:01:22;;;;;;;11.57;6.33;;;;;;;7.35;nan;-24022.31;5009632;28;20267;-72
2023/03/03 08:03:50;;;;;;;15.97;6.67;;;;;;;7.39;nan;-24023.31;5025072;28;20200;-72
2023/03/03 08:06:55;;;;;;;15.20;6.40;;;;;;;7.48;nan;-24026.00;5000292;28;20181;-72
2023/03/03 08:09:29;;;;;;;11.90;6.03;;;;;;;7.46;nan;-24025.44;5005823;28;20176;-72
2023/03/03 08:12:08;;;;;;;15.03;6.33;;;;;;;7.61;nan;-24029.41;5003686;28;20276;-73
2023/03/03 08:14:36;;;;;;;23.30;6.60;;;;;;;7.30;nan;-24020.75;4999839;28;20188;-71
2023/03/03 08:17:13;;;;;;;15.70;5.90;;;;;;;7.47;nan;-24025.56;5011304;28;20196;-72
2023/03/03 08:19:38;;;;;;;12.47;5.47;;;;;;;7.54;nan;-24027.56;5013172;28;20183;-71
2023/03/03 08:22:17;;;;;;;13.77;5.83;;;;;;;7.44;nan;-24024.88;5010792;28;20179;-71
2023/03/03 08:24:42;;;;;;;9.13;4.97;;;;;;;7.61;nan;-24029.41;5010800;28;20610;-71
2023/03/03 08:27:08;;;;;;;10.23;4.77;;;;;;;7.53;nan;-24027.28;5011004;28;20176;-72
2023/03/03 08:29:33;;;;;;;9.47;5.20;;;;;;;7.77;nan;-24034.06;5012075;28;20179;-73
2023/03/03 08:31:58;;;;;;;11.37;5.47;;;;;;;7.68;nan;-24031.53;5026513;28;20172;-73
2023/03/03 08:34:24;;;;;;;9.53;5.10;;;;;;;7.82;nan;-24035.34;5010871;28;20255;-73
2023/03/03 08:36:49;;;;;;;13.37;5.30;;;;;;;7.78;nan;-24034.22;5010901;28;20192;-72
2023/03/03 08:39:15;;;;;;;13.30;5.60;;;;;;;7.71;nan;-24032.22;5010644;28;20279;-72
2023/03/03 08:41:42;;;;;;;12.87;6.40;;;;;;;7.66;nan;-24030.94;5010100;28;20643;-74
2023/03/03 08:44:08;;;;;;;10.87;5.80;;;;;;;7.93;nan;-24038.59;5011198;28;20167;-72
2023/03/03 08:46:34;;;;;;;13.63;6.13;;;;;;;8.08;nan;-24042.72;5011295;28;20215;-72
2023/03/03 08:49:00;;;;;;;14.07;6.23;;;;;;;7.74;nan;-24033.22;5025535;28;20204;-72
2023/03/03 08:51:25;;;;;;;12.50;6.40;;;;;;;8.04;nan;-24041.44;5009899;28;20179;-73
2023/03/03 08:53:51;;;;;;;11.80;6.43;;;;;;;8.09;nan;-24042.84;5011008;28;20228;-75
2023/03/03 08:56:16;;;;;;;13.70;6.57;;;;;;;8.14;nan;-24044.41;5009624;28;20230;-72
2023/03/03 08:58:46;;;;;;;11.70;5.40;;;;;;;8.11;nan;-24043.56;5009617;28;20723;-73
2023/03/03 09:01:17;;;;;;;11.40;6.13;;;;;;;8.04;nan;-24041.44;5011101;28;20211;-72
2023/03/03 09:03:43;;;;;;;14.57;7.23;;;;;;;7.69;nan;-24031.81;5011067;28;20223;-72
2023/03/03 09:06:10;;;;;;;19.47;6.67;;;;;;;8.09;nan;-24042.84;5028204;28;20663;-73
2023/03/03 09:08:36;;;;;;;10.83;5.87;;;;;;;8.03;nan;-24041.16;5015058;28;20175;-72
2023/03/03 09:11:02;;;;;;;14.03;6.53;;;;;;;7.50;nan;-24026.56;5013412;28;20272;-72
2023/03/03 09:13:29;;;;;;;13.30;6.87;;;;;;;7.66;nan;-24030.94;5014128;28;20183;-72
2023/03/03 09:15:57;;;;;;;19.00;7.30;;;;;;;8.02;nan;-24040.88;5014318;28;20630;-72
2023/03/03 09:18:41;;;;;;;9.23;5.97;;;;;;;7.87;nan;-24036.75;5014189;28;20180;-72
2023/03/03 09:21:22;;;;;;;13.90;7.57;;;;;;;8.03;nan;-24041.28;5008054;28;20647;-72
2023/03/03 09:23:53;;;;;;;12.37;6.90;;;;;;;8.05;nan;-24041.84;5014177;28;20312;-72
2023/03/03 09:26:28;;;;;;;12.93;6.20;;;;;;;7.88;nan;-24037.19;5012701;28;20263;-73
2023/03/03 09:29:14;;;;;;;11.67;5.80;;;;;;;7.72;nan;-24032.66;5013755;28;20604;-72
2023/03/03 09:31:43;;;;;;;12.10;5.57;;;;;;;7.92;nan;-24038.19;5014311;28;20168;-71
2023/03/03 09:34:28;;;;;;;11.07;5.83;;;;;;;8.18;nan;-24045.53;4999753;28;20299;-71
2023/03/03 09:36:55;;;;;;;11.47;6.27;;;;;;;8.36;nan;-24050.66;4998131;28;20211;-71
2023/03/03 09:39:27;;;;;;;12.53;6.00;;;;;;;8.38;nan;-24051.22;5022963;28;20261;-71
2023/03/03 09:42:24;;;;;;;12.17;6.53;;;;;;;8.29;nan;-24048.50;5014164;28;20182;-71
2023/03/03 09:45:01;;;;;;;12.17;5.73;;;;;;;8.27;nan;-24048.09;5013756;28;20693;-70
2023/03/03 09:47:48;;;;;;;12.80;6.97;;;;;;;8.35;nan;-24050.22;5013361;28;20266;-72
2023/03/03 09:50:43;;;;;;;8.73;5.07;;;;;;;8.57;nan;-24056.44;5012646;28;20647;-72
2023/03/03 09:53:30;;;;;;;10.73;5.87;;;;;;;8.36;nan;-24050.50;5010457;28;20499;-70
2023/03/03 09:55:55;;;;;;;10.97;5.40;;;;;;;8.40;nan;-24051.63;5007795;28;20212;-71
2023/03/03 09:58:50;;;;;;;13.07;6.53;;;;;;;8.53;nan;-24055.31;5012955;28;20272;-72
2023/03/03 10:01:34;;;;;;;9.03;4.93;;;;;;;8.43;nan;-24052.47;5009340;28;20591;-72
2023/03/03 10:04:58;;;;;;;7.83;5.13;;;;;;;8.71;nan;-24060.41;4992328;28;20527;-72
2023/03/03 10:07:54;;;;;;;9.23;5.57;;;;;;;8.95;nan;-24066.91;5000891;28;20196;-72
2023/03/03 10:10:36;;;;;;;9.10;5.43;;;;;;;9.11;nan;-24071.44;5011185;28;20172;-71
2023/03/03 10:13:19;;;;;;;10.63;6.23;;;;;;;8.95;nan;-24067.06;4992409;28;20302;-70
2023/03/03 10:15:48;;;;;;;11.07;5.47;;;;;;;8.83;nan;-24063.81;4990905;28;20177;-71
2023/03/03 10:18:34;;;;;;;10.32;5.88;;;;;;;8.95;nan;-24067.06;4990322;28;20213;-72
2023/03/03 10:21:18;;;;;;;9.80;4.80;;;;;;;8.91;nan;-24065.78;4992596;28;20179;-72
2023/03/03 10:24:11;;;;;;;10.98;5.63;;;;;;;8.94;nan;-24066.63;4999909;28;20203;-70
2023/03/03 10:26:49;;;;;;;14.70;6.07;;;;;;;9.05;nan;-24069.75;5038589;28;20276;-71
2023/03/03 10:29:32;;;;;;;13.23;5.93;;;;;;;9.05;nan;-24069.75;5026136;28;20326;-71
2023/03/03 10:32:11;;;;;;;16.07;4.87;;;;;;;9.01;nan;-24068.63;4990414;28;20211;-71
2023/03/03 10:35:22;;;;;;;13.00;5.60;;;;;;;9.08;nan;-24070.72;4990554;28;20215;-71
2023/03/03 10:38:05;;;;;;;10.65;5.68;;;;;;;9.11;nan;-24071.44;5006806;28;20220;-71
2023/03/03 10:40:44;;;;;;;11.90;6.38;;;;;;;8.70;nan;-24059.97;4990265;28;20224;-72
2023/03/03 10:43:38;;;;;;;9.73;4.97;;;;;;;9.01;nan;-24068.63;4990850;28;20177;-72
2023/03/03 10:46:28;;;;;;;12.67;6.07;;;;;;;8.65;nan;-24058.56;4993276;28;20173;-73
2023/03/03 10:49:03;;;;;;;11.63;5.67;;;;;;;8.53;nan;-24055.31;4993076;28;20165;-71
2023/03/03 10:51:37;;;;;;;10.70;6.00;;;;;;;8.18;nan;-24045.53;5024903;28;20200;-72
2023/03/03 10:54:11;;;;;;;10.90;5.73;;;;;;;8.38;nan;-24051.22;4992969;28;20275;-72
2023/03/03 10:56:54;;;;;;;11.10;5.23;;;;;;;8.04;nan;-24041.56;4992231;28;20573;-72
2023/03/03 10:59:41;;;;;;;11.23;5.67;;;;;;;8.49;nan;-24054.03;5024517;28;20181;-72
2023/03/03 11:02:12;;;;;;;8.70;5.07;;;;;;;8.77;nan;-24061.97;4993132;28;20541;-73
2023/03/03 11:04:49;;;;;;;14.73;5.25;;;;;;;8.79;nan;-24062.66;4992674;28;20172;-71
2023/03/03 11:07:33;;;;;;;13.50;5.97;;;;;;;8.97;nan;-24067.63;4992620;28;20540;-72
2023/03/03 11:10:25;;;;;;;14.38;5.57;;;;;;;9.06;nan;-24070.16;4992837;28;20176;-72
2023/03/03 11:12:56;;;;;;;9.18;6.10;;;;;;;9.43;nan;-24080.34;4992667;28;20239;-72
2023/03/03 11:15:53;;;;;;;12.13;5.45;;;;;;;9.64;nan;-24086.28;4993106;28;20179;-71
2023/03/03 11:18:30;;;;;;;12.93;6.07;;;;;;;9.38;nan;-24079.06;4992887;28;20169;-71
2023/03/03 11:21:05;;;;;;;8.90;5.93;;;;;;;9.31;nan;-24077.25;4992721;28;20173;-72
2023/03/03 11:23:57;;;;;;;9.38;5.18;;;;;;;9.67;nan;-24087.28;4992631;28;20180;-72
2023/03/03 11:26:28;;;;;;;10.05;5.53;;;;;;;10.08;nan;-24098.72;4992401;28;20201;-71
2023/03/03 11:28:59;;;;;;;9.38;4.90;;;;;;;10.13;nan;-24100.13;4992345;28;20235;-72
2023/03/03 11:31:24;;;;;;;10.95;4.78;;;;;;;10.24;nan;-24103.09;4992177;28;20195;-71
2023/03/03 11:34:16;;;;;;;7.15;4.88;;;;;;;10.22;nan;-24102.53;4992320;28;20652;-72
2023/03/03 11:36:48;;;;;;;9.10;5.05;;;;;;;10.14;nan;-24100.25;4994068;28;20538;-72
2023/03/03 11:39:22;;;;;;;11.13;5.60;;;;;;;10.07;nan;-24098.28;5024027;28;20173;-70
2023/03/03 11:42:05;;;;;;;12.02;5.80;;;;;;;9.75;nan;-24089.53;4992101;28;20168;-71
2023/03/03 11:44:36;;;;;;;6.60;4.72;;;;;;;9.40;nan;-24079.63;5023525;28;20177;-70
2023/03/03 11:47:13;;;;;;;8.18;5.30;;;;;;;9.61;nan;-24085.56;4992118;28;20168;-70
2023/03/03 11:49:52;;;;;;;9.93;6.22;;;;;;;9.74;nan;-24089.09;4991942;28;20177;-71
2023/03/03 11:52:35;;;;;;;8.23;5.03;;;;;;;10.02;nan;-24096.88;4992033;28;20264;-71
2023/03/03 11:55:18;;;;;;;14.15;5.82;;;;;;;10.15;nan;-24100.53;4991950;28;20303;-69
2023/03/03 11:57:52;;;;;;;10.55;5.85;;;;;;;9.87;nan;-24092.63;4993828;28;20227;-71
2023/03/03 12:00:22;;;;;;;9.55;5.75;;;;;;;10.09;nan;-24098.84;4991778;28;20199;-70
2023/03/03 12:02:57;;;;;;;9.52;5.70;;;;;;;9.62;nan;-24085.84;4991458;28;20196;-71